Hlavní strana
METAR-TAF:

METAR-TAF

Letiště :

Dothan, Alabama, Spojené státy americké

zeměpisná šířka: 31-19-17N, zeměpisná délka: 085-26-59W, výška: 122 m

Aktuální stav počasí

Zpráva byla vytvořena před 51 minutami, v 17:00 UTC
Severoseverozápadní vítr 13 kt s nárazy do 18 kt
Teplota 9°C
Vlhkost vzduchu 93%
Tlak 1020 hPa
Viditelnost: 3.2 km
Zataženo ve výšce 800 ft
slabý déšť, kouřmo

METAR: KDHN 151700Z 34013G18KT 2SM -RA BR OVC008 09/08 A3012 RMK AO2 CIG 004V013 P0000 T00940078

Čas: 11:51 (17:51 UTC)

Předpověď počasí

Zpráva byla vytvořena před 31 minutami, v 17:20 UTC
Předpověď platná od 15 v 18 UTC do 16 v 18 UTC
Severní vítr 8 kt
Viditelnost: 3.2 km
Zataženo ve výšce 500 ft
slabý déšť, kouřmo
Od 16 v 0200 UTC
Severní vítr 8 kt
Viditelnost: 10 km
Zataženo ve výšce 2000 ft
Od 16 v 0800 UTC
Severní vítr 7 kt
Viditelnost: 10 km
Oblačno až skoro zataženo ve výšce 3500 ft

TAF: KDHN 151720Z 1518/1618 35008KT 2SM -RA BR OVC005 FM160200 35008KT P6SM OVC020 FM160800 36007KT P6SM BKN035

Stav a předpovědi počasí z více než 4 000 letišť (zprávy METAR a TAF).

Červené a žluté tečky na mapě představují dostupné meteorologické stanice.

Když kurzor umístíte na tečku, zobrazí se název stanice.

Pak kliknutím zobrazíte stav a předpověď počasí.

Chcete-li změnit mapu, kliknutím na zelené tlačítko se znaménkem +mapu přiblížíte, kliknutím na zelené tlačítko se znaménkem – mapu oddálíte a kliknutím na zelené šipky přejdete na sousední mapy.


METAR-TAF: